Accueil
METAR-TAF:

METAR-TAF

Aéroports :

Gilze-Rijen, Pays-Bas

latitude: 51-34N, longitude: 004-56E, altitude: 15 m

Observation

Le bulletin a été fait il y a 19 minutes, à 19:25 UTC
Vent 6 kt de nord, variant entre nord-ouest et nord-est
Température 9°C
Humidité 87%
Pression 1026 hPa
Visibilité 10 km ou plus
Nuages épars à une hauteur de 3400 ft

METAR: EHGR 191925Z AUTO 01006KT 320V040 9999 SCT034 09/07 Q1026 BLU

Heure: 21:44 (19:44 UTC)

Prévision

Le bulletin a été fait il y a 11 heures et 5 minutes, à 08:39 UTC
Prévision valable du 19 à 09 UTC au 19 à 21 UTC
Vent 5 kt de est/nord-est
Visibilité 10 km ou plus
pas de nuages en-dessous de 1500 mètres et pas de cumulonimbus.
Evoluant progressivement
du 19 à 15 UTC au 19 à 17 UTC
Vent 3 kt de nord

TAF: EHGR 190839Z 1909/1921 07005KT CAVOK BECMG 1915/1917 36003KT

Observations et prévisions météorologiques de plus de 4000 aéroports (messages METAR et TAF).

Les stations disponibles sont représentées par des disques jaunes et rouges sur la carte.

Passer la souris dessus pour voir le nom de la station.

Cliquer dessus pour voir les observations et prévisions météorologiques.

Pour changer de carte: cliquez sur les boutons verts avec une croix noire pour zoomer, sur le bouton vert avec un tiret pour effectuer un zoom arrière, ou sur les flèches vertes pour les cartes adjacentes.


METAR-TAF: